createdAt,value
2022-12-14T00:00:31.795Z,46.5
2022-12-14T00:01:48.901Z,48.3
2022-12-14T00:03:06.007Z,49.7
2022-12-14T00:04:23.113Z,45.6
2022-12-14T00:05:40.218Z,46.2
2022-12-14T00:06:57.324Z,48.6
2022-12-14T00:08:14.429Z,48.8
2022-12-14T00:09:30.551Z,48.8
2022-12-14T00:10:47.657Z,47.2
2022-12-14T00:12:04.762Z,46
2022-12-14T00:13:21.868Z,48
2022-12-14T00:14:38.974Z,45.1
2022-12-14T00:15:56.079Z,46
2022-12-14T00:17:13.184Z,47.8
2022-12-14T00:18:29.311Z,47.6
2022-12-14T00:19:45.432Z,44.7
2022-12-14T00:21:02.538Z,46.4
2022-12-14T00:22:18.665Z,47.6
2022-12-14T00:23:34.786Z,45.9
2022-12-14T00:24:51.891Z,46
2022-12-14T00:26:08.997Z,50.5
2022-12-14T00:27:26.102Z,47.2
2022-12-14T00:28:43.208Z,47.2
2022-12-14T00:30:00.313Z,45.6
2022-12-14T00:31:17.418Z,46
2022-12-14T00:32:34.524Z,46.7
2022-12-14T00:33:51.629Z,45.6
2022-12-14T00:35:08.735Z,45.7
2022-12-14T00:36:25.840Z,53.6
2022-12-14T00:37:42.945Z,45.9
2022-12-14T00:39:00.051Z,45.6
2022-12-14T00:40:16.172Z,45.4
2022-12-14T00:41:33.278Z,44.7
2022-12-14T00:42:50.383Z,46
2022-12-14T00:44:07.489Z,48.1
2022-12-14T00:45:24.594Z,48.1
2022-12-14T00:46:41.700Z,46
2022-12-14T00:47:58.805Z,45.9
2022-12-14T00:49:14.932Z,45.2
2022-12-14T00:50:31.053Z,45.6
2022-12-14T00:51:48.159Z,45.4
2022-12-14T00:53:05.265Z,46.4
2022-12-14T00:54:21.392Z,46.4
2022-12-14T00:55:37.513Z,45.9
2022-12-14T00:56:54.619Z,46.4
2022-12-14T00:58:11.724Z,45.4
2022-12-14T00:59:28.829Z,45.2
2022-12-14T01:00:45.935Z,44.4
2022-12-14T01:02:03.040Z,45.1
2022-12-14T01:03:20.146Z,45.6
2022-12-14T01:04:37.251Z,46.4
2022-12-14T01:05:54.357Z,46.8
2022-12-14T01:07:11.462Z,46.4
2022-12-14T01:08:28.568Z,46
2022-12-14T01:09:45.673Z,47
2022-12-14T01:11:02.779Z,47.2
2022-12-14T01:12:18.900Z,48
2022-12-14T01:13:36.006Z,47
2022-12-14T01:14:53.111Z,46
2022-12-14T01:16:10.217Z,46
2022-12-14T01:17:27.323Z,46.8
2022-12-14T01:18:44.428Z,46.4
2022-12-14T01:20:01.533Z,46.4
2022-12-14T01:21:17.660Z,47
2022-12-14T01:22:33.782Z,46.5
2022-12-14T01:23:49.909Z,47
2022-12-14T01:25:06.031Z,53
2022-12-14T01:26:23.136Z,46.4
2022-12-14T01:27:40.242Z,51.7
2022-12-14T01:28:57.347Z,48.3
2022-12-14T01:30:14.453Z,46.7
2022-12-14T01:31:31.558Z,63.9
2022-12-14T01:32:48.664Z,47.2
2022-12-14T01:34:05.770Z,47.2
2022-12-14T01:35:22.875Z,47.2
2022-12-14T01:36:39.981Z,47
2022-12-14T01:37:57.086Z,46.4
2022-12-14T01:39:14.192Z,46
2022-12-14T01:40:31.297Z,47
2022-12-14T01:41:47.419Z,47.2
2022-12-14T01:43:04.525Z,48
2022-12-14T01:44:21.631Z,50.4
2022-12-14T01:45:38.736Z,62.6
2022-12-14T01:46:55.842Z,66.8
2022-12-14T01:48:12.947Z,56.2
2022-12-14T01:49:30.052Z,48.5
2022-12-14T01:50:46.179Z,46.8
2022-12-14T01:52:02.300Z,46.8
2022-12-14T01:53:19.406Z,46.8
2022-12-14T01:54:36.511Z,53.3
2022-12-14T01:55:53.616Z,46.8
2022-12-14T01:57:10.722Z,46.8
2022-12-14T01:58:27.828Z,46.8
2022-12-14T01:59:44.934Z,63.9
2022-12-14T02:01:02.039Z,61.3
2022-12-14T02:02:19.145Z,52.2
2022-12-14T02:03:36.250Z,47.2
2022-12-14T02:04:53.356Z,53.9
2022-12-14T02:06:10.461Z,46
2022-12-14T02:07:27.568Z,46.4
2022-12-14T02:08:43.690Z,45.6
2022-12-14T02:10:00.795Z,55.5
2022-12-14T02:11:17.900Z,45.6
2022-12-14T02:12:35.006Z,45.7
2022-12-14T02:13:52.112Z,51.4
2022-12-14T02:15:09.217Z,47.8
2022-12-14T02:16:26.323Z,46.8
2022-12-14T02:17:42.450Z,48.1
2022-12-14T02:18:58.571Z,49.6
2022-12-14T02:20:14.698Z,48.8
2022-12-14T02:21:30.820Z,49.7
2022-12-14T02:22:47.925Z,46.5
2022-12-14T02:24:05.031Z,67.3
2022-12-14T02:25:21.158Z,47
2022-12-14T02:26:37.279Z,47.5
2022-12-14T02:27:54.385Z,49.1
2022-12-14T02:29:11.490Z,47.6
2022-12-14T02:30:28.596Z,47.2
2022-12-14T02:31:45.702Z,46.4
2022-12-14T02:33:02.807Z,46
2022-12-14T02:34:19.913Z,46.8
2022-12-14T02:35:37.018Z,45.7
2022-12-14T02:36:54.124Z,58.3
2022-12-14T02:38:11.230Z,56.3
2022-12-14T02:39:28.335Z,46.7
2022-12-14T02:40:44.457Z,46
2022-12-14T02:42:01.563Z,47.5
2022-12-14T02:43:18.668Z,60.5
2022-12-14T02:44:35.774Z,59.1
2022-12-14T02:45:52.880Z,48.6
2022-12-14T02:47:09.985Z,47
2022-12-14T02:48:27.091Z,58.1
2022-12-14T02:49:44.197Z,48.5
2022-12-14T02:51:01.303Z,46.7
2022-12-14T02:52:17.429Z,46.4
2022-12-14T02:53:33.551Z,53.3
2022-12-14T02:54:50.657Z,48.3
2022-12-14T02:56:06.784Z,47.2
2022-12-14T02:57:22.905Z,47.5
2022-12-14T02:58:40.011Z,48.5
2022-12-14T02:59:57.116Z,52
2022-12-14T03:01:14.222Z,46.7
2022-12-14T03:02:31.327Z,72.8
2022-12-14T03:03:48.433Z,46.7
2022-12-14T03:05:05.539Z,47
2022-12-14T03:06:22.644Z,46.8
2022-12-14T03:07:39.750Z,56.2
2022-12-14T03:08:56.855Z,67.3
2022-12-14T03:10:13.961Z,47
2022-12-14T03:11:31.066Z,48.5
2022-12-14T03:12:48.172Z,47.6
2022-12-14T03:14:04.293Z,47.8
2022-12-14T03:15:21.399Z,57.6
2022-12-14T03:16:38.505Z,48.3
2022-12-14T03:17:55.610Z,47.6
2022-12-14T03:19:12.716Z,57.6
2022-12-14T03:20:29.822Z,47.8
2022-12-14T03:21:46.927Z,63.9
2022-12-14T03:23:03.054Z,48.6
2022-12-14T03:24:19.176Z,47.8
2022-12-14T03:25:36.281Z,49.3
2022-12-14T03:26:53.387Z,47.6
2022-12-14T03:28:09.513Z,48.6
2022-12-14T03:29:25.635Z,53.9
2022-12-14T03:30:42.741Z,49.4
2022-12-14T03:31:59.846Z,48.1
2022-12-14T03:33:16.952Z,54.1
2022-12-14T03:34:34.057Z,57.6
2022-12-14T03:35:51.163Z,48.3
2022-12-14T03:37:08.269Z,48.9
2022-12-14T03:38:25.375Z,47
2022-12-14T03:39:42.480Z,57
2022-12-14T03:40:59.586Z,46.4
2022-12-14T03:42:16.692Z,68.6
2022-12-14T03:43:33.797Z,47.6
2022-12-14T03:44:50.903Z,68.4
2022-12-14T03:46:07.024Z,51.4
2022-12-14T03:47:24.130Z,48.5
2022-12-14T03:48:41.235Z,51.4
2022-12-14T03:49:58.341Z,47.2
2022-12-14T03:51:15.447Z,58.6
2022-12-14T03:52:32.553Z,51.2
2022-12-14T03:53:49.658Z,67
2022-12-14T03:55:05.785Z,56
2022-12-14T03:56:21.907Z,62.6
2022-12-14T03:57:38.033Z,66.7
2022-12-14T03:58:54.155Z,54.9
2022-12-14T04:00:11.261Z,48
2022-12-14T04:01:28.366Z,68.4
2022-12-14T04:02:45.472Z,47.5
2022-12-14T04:04:02.577Z,50.2
2022-12-14T04:05:19.683Z,64.4
2022-12-14T04:06:36.789Z,49.9
2022-12-14T04:07:53.895Z,49.1
2022-12-14T04:09:11.000Z,50.4
2022-12-14T04:10:28.106Z,66.3
2022-12-14T04:11:45.212Z,46.8
2022-12-14T04:13:02.317Z,57.2
2022-12-14T04:14:19.423Z,52.3
2022-12-14T04:15:35.545Z,67.1
2022-12-14T04:16:52.650Z,67.5
2022-12-14T04:18:09.756Z,50.9
2022-12-14T04:19:26.862Z,50.2
2022-12-14T04:20:43.967Z,63.9
2022-12-14T04:22:01.073Z,61.2
2022-12-14T04:23:18.179Z,57.6
2022-12-14T04:24:34.306Z,63.6
2022-12-14T04:25:50.427Z,64.4
2022-12-14T04:27:07.533Z,65.7
2022-12-14T04:28:23.660Z,52
2022-12-14T04:29:39.781Z,65.5
2022-12-14T04:30:56.887Z,58.1
2022-12-14T04:32:13.993Z,55.9
2022-12-14T04:33:31.098Z,57.8
2022-12-14T04:34:48.204Z,54.7
2022-12-14T04:36:05.309Z,63.1
2022-12-14T04:37:22.416Z,63.3
2022-12-14T04:38:39.521Z,55.7
2022-12-14T04:39:56.627Z,65.4
2022-12-14T04:41:13.732Z,51.2
2022-12-14T04:42:30.838Z,67.9
2022-12-14T04:43:47.943Z,54.9
2022-12-14T04:45:05.049Z,61.5
2022-12-14T04:46:21.171Z,64.2
2022-12-14T04:47:38.276Z,66.7
2022-12-14T04:48:55.382Z,67.1
2022-12-14T04:50:12.488Z,67.6
2022-12-14T04:51:29.593Z,61.5
2022-12-14T04:52:46.699Z,60.1
2022-12-14T04:54:03.805Z,65.4
2022-12-14T04:55:19.932Z,63.1
2022-12-14T04:56:36.053Z,59.7
2022-12-14T04:57:52.180Z,63.1
2022-12-14T04:59:08.302Z,67.3
2022-12-14T05:00:25.408Z,63.6
2022-12-14T05:01:42.513Z,50.9
2022-12-14T05:02:59.619Z,63.6
2022-12-14T05:04:16.725Z,58.9
2022-12-14T05:05:33.830Z,56.8
2022-12-14T05:06:50.936Z,70
2022-12-14T05:08:08.041Z,68.6
2022-12-14T05:09:25.147Z,63.8
2022-12-14T05:10:42.253Z,67
2022-12-14T05:11:59.358Z,53.6
2022-12-14T05:13:16.464Z,65.2
2022-12-14T05:14:33.570Z,52.6
2022-12-14T05:15:49.691Z,67.3
2022-12-14T05:17:06.797Z,60.5
2022-12-14T05:18:23.903Z,61.5
2022-12-14T05:19:41.008Z,65.7
2022-12-14T05:20:58.114Z,54.7
2022-12-14T05:22:15.220Z,62.5
2022-12-14T05:23:32.325Z,64.4
2022-12-14T05:24:48.452Z,67.1
2022-12-14T05:26:04.574Z,49.9
2022-12-14T05:27:20.701Z,59.9
2022-12-14T05:28:36.822Z,68.3
2022-12-14T05:29:53.928Z,58.1
2022-12-14T05:31:11.034Z,52.5
2022-12-14T05:32:28.139Z,70
2022-12-14T05:33:45.245Z,64.6
2022-12-14T05:35:02.351Z,63.4
2022-12-14T05:36:19.456Z,66
2022-12-14T05:37:36.562Z,71.2
2022-12-14T05:38:53.668Z,56
2022-12-14T05:40:10.773Z,61.3
2022-12-14T05:41:27.879Z,63.9
2022-12-14T05:42:44.984Z,67.1
2022-12-14T05:44:02.088Z,70.2
2022-12-14T05:45:18.209Z,58.8
2022-12-14T05:46:35.315Z,63
2022-12-14T05:47:52.421Z,64.9
2022-12-14T05:49:09.526Z,66.8
2022-12-14T05:50:26.632Z,69.1
2022-12-14T05:51:43.738Z,66.7
2022-12-14T05:53:00.843Z,70.2
2022-12-14T05:54:16.970Z,62.6
2022-12-14T05:55:33.092Z,69.4
2022-12-14T05:56:50.197Z,63.9
2022-12-14T05:58:06.324Z,64.6
2022-12-14T05:59:22.446Z,61.7
2022-12-14T06:00:39.551Z,67
2022-12-14T06:01:56.657Z,78.3
2022-12-14T06:03:13.762Z,73.7
2022-12-14T06:04:30.868Z,60.2
2022-12-14T06:05:47.974Z,67
2022-12-14T06:07:05.079Z,68.1
2022-12-14T06:08:22.185Z,61.2
2022-12-14T06:09:39.290Z,65
2022-12-14T06:10:56.397Z,64.4
2022-12-14T06:12:13.502Z,63.9
2022-12-14T06:13:30.608Z,61.8
2022-12-14T06:14:47.713Z,68.8
2022-12-14T06:16:03.835Z,65.4
2022-12-14T06:17:20.941Z,71
2022-12-14T06:18:38.047Z,62.3
2022-12-14T06:19:55.152Z,63.1
2022-12-14T06:21:12.258Z,66.2
2022-12-14T06:22:29.363Z,65.4
2022-12-14T06:23:46.467Z,65.9
2022-12-14T06:25:02.594Z,65.7
2022-12-14T06:26:18.715Z,68.9
2022-12-14T06:27:35.821Z,67.1
2022-12-14T06:28:52.926Z,61.8
2022-12-14T06:30:10.032Z,64.1
2022-12-14T06:31:26.159Z,72.5
2022-12-14T06:32:42.281Z,68.3
2022-12-14T06:33:59.387Z,65.4
2022-12-14T06:35:16.492Z,66.5
2022-12-14T06:36:33.598Z,58.8
2022-12-14T06:37:50.704Z,67.6
2022-12-14T06:39:07.809Z,67
2022-12-14T06:40:24.915Z,60.1
2022-12-14T06:41:42.020Z,68.3
2022-12-14T06:42:59.126Z,69.1
2022-12-14T06:44:16.232Z,67.1
2022-12-14T06:45:33.337Z,76.8
2022-12-14T06:46:50.443Z,81
2022-12-14T06:48:07.549Z,85
2022-12-14T06:49:23.670Z,76
2022-12-14T06:50:40.776Z,67.3
2022-12-14T06:51:57.881Z,67.8
2022-12-14T06:53:14.987Z,61.7
2022-12-14T06:54:32.093Z,70.5
2022-12-14T06:55:49.198Z,63.8
2022-12-14T06:57:06.304Z,67.9
2022-12-14T06:58:22.426Z,63
2022-12-14T06:59:38.553Z,63.3
2022-12-14T07:00:54.674Z,69.4
2022-12-14T07:02:10.801Z,58.6
2022-12-14T07:03:26.923Z,61.7
2022-12-14T07:04:44.028Z,64.4
2022-12-14T07:06:01.134Z,64.7
2022-12-14T07:07:18.240Z,61
2022-12-14T07:08:35.345Z,63.8
2022-12-14T07:09:52.451Z,60.4
2022-12-14T07:11:09.557Z,67
2022-12-14T07:12:26.663Z,63.6
2022-12-14T07:13:43.768Z,65.5
2022-12-14T07:15:00.874Z,62.6
2022-12-14T07:16:17.980Z,65.9
2022-12-14T07:17:35.085Z,61.5
2022-12-14T07:18:52.191Z,68.4
2022-12-14T07:20:08.312Z,64.2
2022-12-14T07:21:25.418Z,63.6
2022-12-14T07:22:42.524Z,67.3
2022-12-14T07:23:59.630Z,67.5
2022-12-14T07:25:16.736Z,61.5
2022-12-14T07:26:33.842Z,60.4
2022-12-14T07:27:50.947Z,69.1
2022-12-14T07:29:07.074Z,60.5
2022-12-14T07:30:23.196Z,65.7
2022-12-14T07:31:40.301Z,66.5
2022-12-14T07:32:56.428Z,67
2022-12-14T07:34:12.549Z,69.2
2022-12-14T07:35:29.655Z,61.8
2022-12-14T07:36:46.761Z,60.4
2022-12-14T07:38:03.867Z,65
2022-12-14T07:39:20.972Z,58.6
2022-12-14T07:40:38.078Z,65.9
2022-12-14T07:41:55.183Z,64.4
2022-12-14T07:43:12.289Z,68.4
2022-12-14T07:44:29.394Z,63.6
2022-12-14T07:45:46.500Z,64.4
2022-12-14T07:47:03.605Z,64.1
2022-12-14T07:48:20.711Z,65.9
2022-12-14T07:49:37.817Z,63.4
2022-12-14T07:50:53.938Z,65.4
2022-12-14T07:52:11.044Z,60.5
2022-12-14T07:53:28.150Z,68.6
2022-12-14T07:54:45.255Z,68.1
2022-12-14T07:56:02.361Z,68.9
2022-12-14T07:57:19.466Z,63
2022-12-14T07:58:36.572Z,67.5
2022-12-14T07:59:52.699Z,65
2022-12-14T08:01:08.820Z,63.3
2022-12-14T08:02:25.926Z,67.5
2022-12-14T08:03:42.053Z,67.6
2022-12-14T08:04:58.175Z,63.1
2022-12-14T08:06:15.281Z,72
2022-12-14T08:07:32.386Z,68.9
2022-12-14T08:08:49.492Z,63.8
2022-12-14T08:10:06.597Z,64.4
2022-12-14T08:11:23.703Z,63.6
2022-12-14T08:12:40.809Z,64.1
2022-12-14T08:13:57.914Z,62.3
2022-12-14T08:15:15.020Z,64.6
2022-12-14T08:16:32.126Z,66.7
2022-12-14T08:17:49.232Z,66.8
2022-12-14T08:19:06.337Z,62.3
2022-12-14T08:20:23.443Z,68.1
2022-12-14T08:21:39.564Z,64.4
2022-12-14T08:22:56.670Z,65.4
2022-12-14T08:24:13.775Z,65.4
2022-12-14T08:25:30.881Z,64.9
2022-12-14T08:26:47.987Z,63
2022-12-14T08:28:05.092Z,64.9
2022-12-14T08:29:22.198Z,66
2022-12-14T08:30:38.325Z,66.3
2022-12-14T08:31:54.447Z,70.7
2022-12-14T08:33:11.552Z,63.6
2022-12-14T08:34:28.658Z,65
2022-12-14T08:35:44.785Z,63.6
2022-12-14T08:37:00.906Z,63.1
2022-12-14T08:38:18.012Z,65.4
2022-12-14T08:39:35.117Z,69.4
2022-12-14T08:40:52.223Z,69.9
2022-12-14T08:42:09.329Z,70.5
2022-12-14T08:43:26.434Z,69.6
2022-12-14T08:44:43.540Z,63.8
2022-12-14T08:46:00.645Z,59.1
2022-12-14T08:47:17.751Z,60.9
2022-12-14T08:48:34.857Z,63.3
2022-12-14T08:49:51.962Z,63.4
2022-12-14T08:51:09.068Z,67.3
2022-12-14T08:52:26.174Z,60.2
2022-12-14T08:53:42.295Z,61.8
2022-12-14T08:54:59.401Z,71
2022-12-14T08:56:16.507Z,70.8
2022-12-14T08:57:33.612Z,70.2
2022-12-14T08:58:50.718Z,62.6
2022-12-14T09:00:07.823Z,64.1
2022-12-14T09:01:24.929Z,64.1
2022-12-14T09:02:41.056Z,59.1
2022-12-14T09:03:57.177Z,58.1
2022-12-14T09:05:13.304Z,60.5
2022-12-14T09:06:29.426Z,67.9
2022-12-14T09:07:46.531Z,65.2
2022-12-14T09:09:03.637Z,61.3
2022-12-14T09:10:20.743Z,61.5
2022-12-14T09:11:37.848Z,57.6
2022-12-14T09:12:54.954Z,62.8
2022-12-14T09:14:12.059Z,59.6
2022-12-14T09:15:29.165Z,67
2022-12-14T09:16:46.270Z,59.4
2022-12-14T09:18:03.376Z,58.6
2022-12-14T09:19:20.482Z,62.6
2022-12-14T09:20:37.588Z,56.8
2022-12-14T09:21:54.694Z,64.1
2022-12-14T09:23:10.815Z,58.8
2022-12-14T09:24:27.921Z,61.2
2022-12-14T09:25:45.027Z,56.8
2022-12-14T09:27:02.133Z,63
2022-12-14T09:28:19.238Z,61
2022-12-14T09:29:36.344Z,63.8
2022-12-14T09:30:53.450Z,61.3
2022-12-14T09:32:09.577Z,58.9
2022-12-14T09:33:25.699Z,59.1
2022-12-14T09:34:42.804Z,60.5
2022-12-14T09:35:58.931Z,61
2022-12-14T09:37:15.053Z,62.6
2022-12-14T09:38:32.159Z,62.5
2022-12-14T09:39:49.264Z,57.6
2022-12-14T09:41:06.370Z,60.1
2022-12-14T09:42:23.476Z,60.2
2022-12-14T09:43:40.581Z,67.6
2022-12-14T09:44:57.687Z,76.8
2022-12-14T09:46:14.793Z,61.8
2022-12-14T09:47:31.899Z,63.6
2022-12-14T09:48:49.004Z,63.3
2022-12-14T09:50:06.110Z,61.8
2022-12-14T09:51:23.216Z,60.2
2022-12-14T09:52:40.321Z,60.9
2022-12-14T09:53:56.443Z,70.2
2022-12-14T09:55:13.549Z,60.7
2022-12-14T09:56:30.654Z,63.1
2022-12-14T09:57:47.760Z,63.6
2022-12-14T09:59:04.866Z,68.6
2022-12-14T10:00:21.971Z,79.5
2022-12-14T10:01:39.077Z,61.7
2022-12-14T10:02:55.204Z,74.1
2022-12-14T10:04:11.325Z,59.1
2022-12-14T10:05:28.431Z,59.1
2022-12-14T10:06:44.558Z,63.9
2022-12-14T10:08:00.679Z,73.3
2022-12-14T10:09:17.785Z,65.4
2022-12-14T10:10:34.890Z,61.5
2022-12-14T10:11:51.996Z,67.3
2022-12-14T10:13:09.102Z,71.2
2022-12-14T10:14:26.207Z,63.8
2022-12-14T10:15:43.313Z,64.1
2022-12-14T10:17:00.418Z,62
2022-12-14T10:18:17.524Z,60.5
2022-12-14T10:19:34.630Z,76.3
2022-12-14T10:20:51.735Z,61.7
2022-12-14T10:22:08.841Z,61.3
2022-12-14T10:23:25.947Z,64.1
2022-12-14T10:24:42.068Z,66.7
2022-12-14T10:25:59.174Z,66.2
2022-12-14T10:27:16.280Z,60.4
2022-12-14T10:28:33.385Z,63.6
2022-12-14T10:29:50.491Z,62.1
2022-12-14T10:31:07.596Z,62.8
2022-12-14T10:32:24.702Z,63.9
2022-12-14T10:33:40.829Z,68.3
2022-12-14T10:34:56.950Z,59.1
2022-12-14T10:36:14.056Z,63.4
2022-12-14T10:37:30.183Z,67.8
2022-12-14T10:38:46.304Z,63.4
2022-12-14T10:40:03.410Z,66
2022-12-14T10:41:20.515Z,66.7
2022-12-14T10:42:37.621Z,62.6
2022-12-14T10:43:54.727Z,62.6
2022-12-14T10:45:11.832Z,69.7
2022-12-14T10:46:28.938Z,67.8
2022-12-14T10:47:46.043Z,67.8
2022-12-14T10:49:03.148Z,67.1
2022-12-14T10:50:20.254Z,68.8
2022-12-14T10:51:37.360Z,69.2
2022-12-14T10:52:54.465Z,67
2022-12-14T10:54:11.570Z,66.7
2022-12-14T10:55:27.692Z,68.6
2022-12-14T10:56:44.797Z,67
2022-12-14T10:58:01.902Z,84.2
2022-12-14T10:59:19.008Z,62.1
2022-12-14T11:00:36.113Z,68.1
2022-12-14T11:01:53.219Z,75.2
2022-12-14T11:03:10.324Z,82.8
2022-12-14T11:04:26.451Z,65.5
2022-12-14T11:05:42.572Z,67.5
2022-12-14T11:06:58.699Z,63.6
2022-12-14T11:08:14.820Z,69.1
2022-12-14T11:09:31.926Z,64.9
2022-12-14T11:10:49.031Z,65.5
2022-12-14T11:12:06.136Z,66.2
2022-12-14T11:13:23.241Z,65.5
2022-12-14T11:14:40.347Z,66.7
2022-12-14T11:15:56.468Z,56.3
2022-12-14T11:17:13.573Z,65.4
2022-12-14T11:18:30.679Z,62.6
2022-12-14T11:19:47.784Z,60.9
2022-12-14T11:21:04.889Z,63.8
2022-12-14T11:22:21.994Z,66.7
2022-12-14T11:23:39.100Z,62
2022-12-14T11:24:56.205Z,64.9
2022-12-14T11:26:13.310Z,65.9
2022-12-14T11:27:30.415Z,62.8
2022-12-14T11:28:47.521Z,66.3
2022-12-14T11:30:04.626Z,66.8
2022-12-14T11:31:21.731Z,68.4
2022-12-14T11:32:37.853Z,64.4
2022-12-14T11:33:53.979Z,65.9
2022-12-14T11:35:10.100Z,67
2022-12-14T11:36:26.227Z,66
2022-12-14T11:37:42.348Z,64.9
2022-12-14T11:38:59.453Z,67.3
2022-12-14T11:40:16.559Z,64.1
2022-12-14T11:41:33.664Z,67.1
2022-12-14T11:42:50.769Z,66.8
2022-12-14T11:44:07.874Z,63.8
2022-12-14T11:45:24.980Z,67
2022-12-14T11:46:42.085Z,65.9
2022-12-14T11:47:59.190Z,65.2
2022-12-14T11:49:16.295Z,66.3
2022-12-14T11:50:33.400Z,66
2022-12-14T11:51:50.505Z,64.6
2022-12-14T11:53:07.611Z,59.1
2022-12-14T11:54:23.732Z,63.6
2022-12-14T11:55:40.837Z,66.2
2022-12-14T11:56:57.943Z,68.4
2022-12-14T11:58:15.048Z,67
2022-12-14T11:59:32.153Z,64.9
2022-12-14T12:00:49.258Z,67.5
2022-12-14T12:02:06.363Z,69.1
2022-12-14T12:03:22.490Z,68.8
2022-12-14T12:04:38.611Z,68.6
2022-12-14T12:05:54.738Z,72.1
2022-12-14T12:07:10.859Z,70.7
2022-12-14T12:08:27.965Z,68.4
2022-12-14T12:09:45.070Z,69.1
2022-12-14T12:11:02.175Z,69.4
2022-12-14T12:12:19.281Z,67
2022-12-14T12:13:36.386Z,64.1
2022-12-14T12:14:53.491Z,65.9
2022-12-14T12:16:10.597Z,63.9
2022-12-14T12:17:27.702Z,65.9
2022-12-14T12:18:44.807Z,57.2
2022-12-14T12:20:01.913Z,64.7
2022-12-14T12:21:19.016Z,65.4
2022-12-14T12:22:36.122Z,60.9
2022-12-14T12:23:52.243Z,68.1
2022-12-14T12:25:09.349Z,69.9
2022-12-14T12:26:26.454Z,65.2
2022-12-14T12:27:43.559Z,68.6
2022-12-14T12:29:00.664Z,67.8
2022-12-14T12:30:17.770Z,64.4
2022-12-14T12:31:34.875Z,65
2022-12-14T12:32:51.002Z,64.9
2022-12-14T12:34:07.123Z,65.4
2022-12-14T12:35:24.228Z,68.1
2022-12-14T12:36:40.355Z,68.1
2022-12-14T12:37:56.476Z,63.4
2022-12-14T12:39:13.582Z,62.1
2022-12-14T12:40:30.687Z,62.8
2022-12-14T12:41:47.792Z,65.2
2022-12-14T12:43:04.897Z,68.1
2022-12-14T12:44:22.003Z,64.4
2022-12-14T12:45:39.108Z,64.1
2022-12-14T12:46:56.213Z,64.6
2022-12-14T12:48:13.318Z,68.1
2022-12-14T12:49:30.424Z,70.5
2022-12-14T12:50:47.529Z,65.7
2022-12-14T12:52:04.635Z,64.7
2022-12-14T12:53:21.740Z,65.7
2022-12-14T12:54:37.861Z,70.7
2022-12-14T12:55:54.967Z,63
2022-12-14T12:57:12.072Z,69.6
2022-12-14T12:58:29.178Z,68.4
2022-12-14T12:59:46.283Z,72.3
2022-12-14T13:01:03.389Z,73.3
2022-12-14T13:02:20.494Z,64.7
2022-12-14T13:03:36.620Z,61.5
2022-12-14T13:04:52.742Z,65.9
2022-12-14T13:06:08.868Z,70
2022-12-14T13:07:24.990Z,66.8
2022-12-14T13:08:42.095Z,64.4
2022-12-14T13:09:59.201Z,66.3
2022-12-14T13:11:16.306Z,65.4
2022-12-14T13:12:33.411Z,77.3
2022-12-14T13:13:50.517Z,76
2022-12-14T13:15:07.622Z,67.1
2022-12-14T13:16:24.728Z,66.3
2022-12-14T13:17:41.833Z,60.7
2022-12-14T13:18:58.939Z,67.1
2022-12-14T13:20:16.044Z,71.8
2022-12-14T13:21:33.149Z,69.1
2022-12-14T13:22:50.255Z,59.4
2022-12-14T13:24:06.376Z,65
2022-12-14T13:25:23.481Z,57
2022-12-14T13:26:40.587Z,69.6
2022-12-14T13:27:57.692Z,64.2
2022-12-14T13:29:14.798Z,61.7
2022-12-14T13:30:31.903Z,61.2
2022-12-14T13:31:49.008Z,74.1
2022-12-14T13:33:06.115Z,63.9
2022-12-14T13:34:22.241Z,73.4
2022-12-14T13:35:38.363Z,66
2022-12-14T13:36:54.489Z,67
2022-12-14T13:38:10.610Z,71
2022-12-14T13:39:27.716Z,66.7
2022-12-14T13:40:44.821Z,69.2
2022-12-14T13:42:01.926Z,67.9
2022-12-14T13:43:19.031Z,64.2
2022-12-14T13:44:36.137Z,61.8
2022-12-14T13:45:53.242Z,63.3
2022-12-14T13:47:10.347Z,67.5
2022-12-14T13:48:27.452Z,68.9
2022-12-14T13:49:44.558Z,65.4
2022-12-14T13:51:01.663Z,66.2
2022-12-14T13:52:18.768Z,64.6
2022-12-14T13:53:35.873Z,67.9
2022-12-14T13:54:51.995Z,67.9
2022-12-14T13:56:09.100Z,64.4
2022-12-14T13:57:26.205Z,66.3
2022-12-14T13:58:43.310Z,68.6
2022-12-14T14:00:00.415Z,66.7
2022-12-14T14:01:17.521Z,63.9
2022-12-14T14:02:34.626Z,66.5
2022-12-14T14:03:51.731Z,68.9
2022-12-14T14:05:08.837Z,73.9
2022-12-14T14:06:25.942Z,64.6
2022-12-14T14:07:43.047Z,67.9
2022-12-14T14:09:00.152Z,67.3
2022-12-14T14:10:17.258Z,56.2
2022-12-14T14:11:33.379Z,65.2
2022-12-14T14:12:50.484Z,68.4
2022-12-14T14:14:07.590Z,69.6
2022-12-14T14:15:23.716Z,64.4
2022-12-14T14:16:39.837Z,67
2022-12-14T14:17:55.964Z,64.4
2022-12-14T14:19:12.085Z,64.9
2022-12-14T14:20:29.190Z,67.5
2022-12-14T14:21:46.296Z,60.1
2022-12-14T14:23:03.401Z,64.2
2022-12-14T14:24:20.506Z,70.4
2022-12-14T14:25:37.611Z,61.2
2022-12-14T14:26:54.717Z,64.7
2022-12-14T14:28:11.822Z,67
2022-12-14T14:29:28.927Z,68.6
2022-12-14T14:30:46.032Z,62.6
2022-12-14T14:32:03.135Z,68.1
2022-12-14T14:33:20.241Z,68.1
2022-12-14T14:34:37.346Z,65.2
2022-12-14T14:35:53.467Z,65.4
2022-12-14T14:37:10.572Z,68.8
2022-12-14T14:38:27.677Z,67.3
2022-12-14T14:39:44.782Z,63.1
2022-12-14T14:41:01.888Z,68.4
2022-12-14T14:42:18.993Z,71
2022-12-14T14:43:36.099Z,69.6
2022-12-14T14:44:52.225Z,66.5
2022-12-14T14:46:08.346Z,57.8
2022-12-14T14:47:24.473Z,63
2022-12-14T14:48:40.595Z,66.2
2022-12-14T14:49:57.700Z,68.4
2022-12-14T14:51:14.805Z,62.8
2022-12-14T14:52:31.910Z,70.2
2022-12-14T14:53:49.016Z,68.3
2022-12-14T14:55:06.121Z,66.3
2022-12-14T14:56:23.226Z,62.1
2022-12-14T14:57:40.332Z,67.8
2022-12-14T14:58:57.437Z,66.2
2022-12-14T15:00:14.542Z,74.2
2022-12-14T15:01:31.648Z,65.5
2022-12-14T15:02:48.753Z,70.8
2022-12-14T15:04:05.858Z,66
2022-12-14T15:05:21.979Z,67.5
2022-12-14T15:06:39.085Z,68.4
2022-12-14T15:07:56.190Z,67.5
2022-12-14T15:09:13.295Z,64.6
2022-12-14T15:10:30.401Z,66.7
2022-12-14T15:11:47.506Z,65.4
2022-12-14T15:13:04.611Z,66.5
2022-12-14T15:14:20.738Z,62.1
2022-12-14T15:15:36.859Z,67.9
2022-12-14T15:16:52.985Z,66.3
2022-12-14T15:18:09.107Z,67
2022-12-14T15:19:26.212Z,63
2022-12-14T15:20:43.317Z,62.3
2022-12-14T15:22:00.422Z,68.4
2022-12-14T15:23:17.527Z,65.9
2022-12-14T15:24:34.633Z,63.6
2022-12-14T15:25:51.738Z,66
2022-12-14T15:27:08.843Z,66
2022-12-14T15:28:25.949Z,64.6
2022-12-14T15:29:43.054Z,64.1
2022-12-14T15:31:00.159Z,61.5
2022-12-14T15:32:17.264Z,65
2022-12-14T15:33:33.385Z,60.9
2022-12-14T15:34:50.491Z,62.1
2022-12-14T15:36:07.596Z,65.4
2022-12-14T15:37:24.701Z,66.3
2022-12-14T15:38:41.807Z,60.1
2022-12-14T15:39:58.912Z,60.7
2022-12-14T15:41:16.017Z,88.7
2022-12-14T15:42:33.122Z,63.3
2022-12-14T15:43:49.249Z,59.1
2022-12-14T15:45:05.370Z,67
2022-12-14T15:46:21.497Z,67.6
2022-12-14T15:47:37.618Z,61.3
2022-12-14T15:48:54.723Z,67.1
2022-12-14T15:50:11.828Z,64.7
2022-12-14T15:51:28.934Z,62
2022-12-14T15:52:46.039Z,61.3
2022-12-14T15:54:03.144Z,66.2
2022-12-14T15:55:20.250Z,64.6
2022-12-14T15:56:37.355Z,59.4
2022-12-14T15:57:54.460Z,64.7
2022-12-14T15:59:11.565Z,60.4
2022-12-14T16:00:28.671Z,65.7
2022-12-14T16:01:45.776Z,63.8
2022-12-14T16:03:02.881Z,66.7
2022-12-14T16:04:19.003Z,66.5
2022-12-14T16:05:36.108Z,62.6
2022-12-14T16:06:53.213Z,66.8
2022-12-14T16:08:10.320Z,69.6
2022-12-14T16:09:27.425Z,67.9
2022-12-14T16:10:44.530Z,64.9
2022-12-14T16:12:01.635Z,61.5
2022-12-14T16:13:17.762Z,60.1
2022-12-14T16:14:33.883Z,69.4
2022-12-14T16:15:50.988Z,69.4
2022-12-14T16:17:07.115Z,66.3
2022-12-14T16:18:23.236Z,69.2
2022-12-14T16:19:40.342Z,68.4
2022-12-14T16:20:57.447Z,63.3
2022-12-14T16:22:14.552Z,62
2022-12-14T16:23:31.657Z,63.8
2022-12-14T16:24:48.763Z,65.5
2022-12-14T16:26:05.868Z,60.5
2022-12-14T16:27:22.973Z,63
2022-12-14T16:28:40.078Z,67.9
2022-12-14T16:29:57.184Z,64.4
2022-12-14T16:31:14.289Z,63
2022-12-14T16:32:31.394Z,64.7
2022-12-14T16:33:48.500Z,62.1
2022-12-14T16:35:04.621Z,70.5
2022-12-14T16:36:21.726Z,67.9
2022-12-14T16:37:38.831Z,59.7
2022-12-14T16:38:55.937Z,71.5
2022-12-14T16:40:13.042Z,68.3
2022-12-14T16:41:30.148Z,63
2022-12-14T16:42:47.253Z,58.6
2022-12-14T16:44:03.379Z,62.8
2022-12-14T16:45:19.499Z,63.8
2022-12-14T16:46:35.625Z,65
2022-12-14T16:47:51.747Z,58
2022-12-14T16:49:08.852Z,61.8
2022-12-14T16:50:25.958Z,61.7
2022-12-14T16:51:43.063Z,62.1
2022-12-14T16:53:00.168Z,64.6
2022-12-14T16:54:17.273Z,62
2022-12-14T16:55:34.379Z,65.5
2022-12-14T16:56:51.484Z,61.2
2022-12-14T16:58:08.590Z,67.5
2022-12-14T16:59:25.695Z,67.8
2022-12-14T17:00:42.800Z,63.1
2022-12-14T17:01:59.905Z,73.4
2022-12-14T17:03:17.011Z,76
2022-12-14T17:04:33.132Z,69.7
2022-12-14T17:05:50.237Z,64.4
2022-12-14T17:07:07.342Z,63.9
2022-12-14T17:08:24.448Z,66.7
2022-12-14T17:09:41.554Z,68.3
2022-12-14T17:10:58.659Z,61.3
2022-12-14T17:12:15.764Z,62.8